Time;durP1;ratioP1;P1;durP2;ratioP2;P2;SDS_P1;SDS_P2;PMS_P1;PMS_P2;Temp;Humidity;BMP_temperature;BMP_pressure;BME280_temperature;BME280_humidity;BME280_pressure;Samples;Min_cycle;Max_cycle;Signal;HPM_P1;HPM_P2
2021/09/03 00:01:36;;;;;;;5.00;2.33;;;14.50;99.90;;;;;;20602266;28;20396;-79
2021/09/03 00:11:37;;;;;;;13.30;3.05;;;14.40;99.90;;;;;;20617767;28;20047;-79
2021/09/03 00:21:38;;;;;;;9.52;2.63;;;14.30;99.90;;;;;;20586930;28;20414;-80
2021/09/03 00:31:39;;;;;;;8.02;2.40;;;14.30;99.90;;;;;;20611788;28;20065;-79
2021/09/03 00:41:40;;;;;;;8.35;2.47;;;14.30;99.90;;;;;;20498654;28;20063;-79
2021/09/03 00:51:44;;;;;;;6.90;3.00;;;14.30;99.90;;;;;;20511188;28;20126;-79
2021/09/03 01:01:45;;;;;;;9.60;2.85;;;14.20;99.90;;;;;;20546525;28;20049;-78
2021/09/03 01:11:46;;;;;;;7.15;2.30;;;14.20;99.90;;;;;;20542699;28;20050;-79
2021/09/03 01:21:51;;;;;;;9.85;2.90;;;14.10;99.90;;;;;;20509983;28;20032;-80
2021/09/03 01:31:52;;;;;;;8.90;2.70;;;14.10;99.90;;;;;;20504211;28;20041;-79
2021/09/03 01:41:53;;;;;;;11.10;3.42;;;14.00;99.90;;;;;;20483620;28;20052;-79
2021/09/03 01:51:55;;;;;;;8.10;3.30;;;14.00;99.90;;;;;;20502763;28;20063;-80
2021/09/03 02:01:56;;;;;;;7.15;3.03;;;13.90;99.90;;;;;;20547512;28;20045;-78
2021/09/03 02:11:57;;;;;;;7.47;2.88;;;13.90;99.90;;;;;;20469652;28;20054;-79
2021/09/03 02:21:58;;;;;;;9.48;2.65;;;13.80;99.90;;;;;;20519484;28;20062;-79
2021/09/03 02:31:59;;;;;;;14.48;3.92;;;13.80;99.90;;;;;;20492376;28;20409;-79
2021/09/03 02:42:00;;;;;;;7.95;3.13;;;13.80;99.90;;;;;;20477475;28;20225;-79
2021/09/03 02:52:03;;;;;;;9.25;3.10;;;13.70;99.90;;;;;;20502421;28;20113;-79
2021/09/03 03:02:04;;;;;;;7.88;2.70;;;13.70;99.90;;;;;;20487925;28;20026;-80
2021/09/03 03:12:05;;;;;;;10.55;3.75;;;13.60;99.90;;;;;;20490328;28;20055;-78
2021/09/03 03:22:07;;;;;;;9.88;3.25;;;13.60;99.90;;;;;;20468671;28;20051;-79
2021/09/03 03:32:08;;;;;;;16.77;4.85;;;13.70;99.90;;;;;;20495416;28;20539;-79
2021/09/03 03:42:09;;;;;;;7.90;3.28;;;13.60;99.90;;;;;;20514658;28;20208;-79
2021/09/03 03:52:10;;;;;;;9.70;3.42;;;13.50;99.90;;;;;;20526374;28;20061;-80
2021/09/03 04:02:11;;;;;;;10.95;3.40;;;13.50;99.90;;;;;;20537797;28;20125;-79
2021/09/03 04:12:13;;;;;;;9.20;3.72;;;13.40;99.90;;;;;;20544226;28;20134;-79
2021/09/03 04:22:14;;;;;;;10.77;4.22;;;13.40;99.90;;;;;;20508144;28;20039;-79
2021/09/03 04:32:15;;;;;;;10.88;3.70;;;13.40;99.90;;;;;;20554290;28;20674;-79
2021/09/03 04:42:16;;;;;;;11.07;3.55;;;13.30;99.90;;;;;;20523957;28;20042;-79
2021/09/03 04:52:17;;;;;;;12.90;3.95;;;13.30;99.90;;;;;;20497751;28;20053;-78
2021/09/03 05:02:18;;;;;;;14.60;4.50;;;13.40;99.90;;;;;;20528035;28;20031;-79
2021/09/03 05:12:19;;;;;;;11.10;3.38;;;13.40;99.90;;;;;;20509550;28;20502;-79
2021/09/03 05:22:20;;;;;;;10.07;3.45;;;13.20;99.90;;;;;;20502401;28;20043;-79
2021/09/03 05:32:22;;;;;;;9.40;3.50;;;13.20;99.90;;;;;;20505326;28;20043;-78
2021/09/03 05:42:23;;;;;;;12.70;3.58;;;13.30;99.90;;;;;;20512296;28;20042;-78
2021/09/03 05:52:24;;;;;;;13.35;4.40;;;13.30;99.90;;;;;;20502241;28;20051;-78
2021/09/03 06:02:26;;;;;;;12.45;4.22;;;13.40;99.90;;;;;;20534241;28;20038;-79
2021/09/03 06:12:27;;;;;;;11.13;3.63;;;13.50;99.90;;;;;;20539521;28;20043;-80
2021/09/03 06:22:29;;;;;;;13.60;3.70;;;13.60;99.90;;;;;;20505276;28;20499;-80
2021/09/03 06:32:30;;;;;;;12.35;4.05;;;13.70;99.90;;;;;;20491281;28;20049;-80
2021/09/03 06:42:32;;;;;;;12.10;4.10;;;13.90;99.90;;;;;;20543579;28;20060;-79
2021/09/03 06:52:33;;;;;;;14.70;4.25;;;14.10;99.90;;;;;;20528187;28;20065;-79
2021/09/03 07:02:34;;;;;;;9.98;4.25;;;14.20;99.90;;;;;;20505372;28;20038;-80
2021/09/03 07:12:37;;;;;;;10.30;3.10;;;14.50;99.90;;;;;;20508631;28;20153;-80
2021/09/03 07:22:38;;;;;;;14.00;4.13;;;14.80;99.90;;;;;;20516706;28;20046;-79
2021/09/03 07:32:41;;;;;;;12.52;5.57;;;14.90;99.90;;;;;;20534173;28;20495;-79
2021/09/03 07:42:42;;;;;;;14.40;4.00;;;15.10;99.90;;;;;;20519575;28;20042;-79
2021/09/03 07:52:43;;;;;;;10.60;4.35;;;15.40;99.90;;;;;;20525798;28;20038;-80
2021/09/03 08:02:44;;;;;;;12.68;4.55;;;15.60;99.90;;;;;;20550300;28;20043;-78
2021/09/03 08:12:47;;;;;;;10.13;4.13;;;16.00;99.90;;;;;;20512259;28;20077;-79
2021/09/03 08:22:50;;;;;;;11.88;3.83;;;16.30;99.90;;;;;;20516682;28;20045;-79
2021/09/03 08:32:52;;;;;;;13.27;4.65;;;16.60;99.90;;;;;;20549793;28;20039;-79
2021/09/03 08:42:53;;;;;;;12.32;3.58;;;17.00;99.90;;;;;;20548709;28;20054;-79
2021/09/03 08:52:55;;;;;;;12.20;5.22;;;17.40;99.90;;;;;;20538916;28;20035;-79
2021/09/03 09:03:01;;;;;;;6.70;3.35;;;17.90;99.90;;;;;;20527116;28;20051;-79
2021/09/03 09:13:13;;;;;;;9.25;3.08;;;18.30;99.90;;;;;;20540782;28;20047;-79
2021/09/03 09:23:14;;;;;;;9.85;3.80;;;18.70;99.90;;;;;;20549242;28;20050;-79
2021/09/03 09:33:17;;;;;;;8.07;3.63;;;19.00;99.90;;;;;;20532422;28;20050;-79
2021/09/03 09:43:23;;;;;;;6.63;2.88;;;19.40;99.90;;;;;;20544391;28;20437;-79
2021/09/03 09:53:26;;;;;;;8.70;2.92;;;19.60;99.90;;;;;;20517692;28;20537;-79
2021/09/03 10:03:27;;;;;;;12.95;2.97;;;19.60;99.90;;;;;;20544716;28;20039;-79
2021/09/03 10:13:28;;;;;;;8.05;3.72;;;20.00;99.90;;;;;;20493756;28;20051;-79
2021/09/03 10:23:57;;;;;;;7.75;3.08;;;20.20;99.90;;;;;;20479357;28;20551;-78
2021/09/03 10:33:58;;;;;;;10.98;3.35;;;20.40;99.90;;;;;;20573733;28;20040;-79
2021/09/03 10:43:59;;;;;;;8.70;3.58;;;20.60;99.90;;;;;;20522209;28;20076;-78
2021/09/03 10:54:12;;;;;;;8.18;2.97;;;20.80;99.90;;;;;;20511739;28;20051;-78
2021/09/03 11:04:14;;;;;;;10.48;3.25;;;21.10;99.90;;;;;;20559328;28;20371;-78
2021/09/03 11:14:22;;;;;;;10.00;3.70;;;21.40;99.90;;;;;;20502755;28;20050;-78
2021/09/03 11:24:32;;;;;;;7.20;3.10;;;21.80;99.90;;;;;;20551579;28;20070;-78
2021/09/03 11:34:56;;;;;;;8.07;3.65;;;21.90;99.90;;;;;;20528343;28;20038;-77
2021/09/03 11:45:01;;;;;;;8.73;2.88;;;22.50;99.90;;;;;;20512050;28;20123;-78
2021/09/03 11:55:06;;;;;;;8.20;2.72;;;22.40;99.90;;;;;;20533137;28;20166;-77
2021/09/03 12:05:09;;;;;;;10.77;3.67;;;22.80;99.90;;;;;;20550297;28;20400;-77
2021/09/03 12:15:19;;;;;;;9.95;3.45;;;22.60;99.90;;;;;;20546270;28;20069;-77
2021/09/03 12:25:32;;;;;;;7.43;3.25;;;22.90;99.90;;;;;;20510462;28;20053;-78
2021/09/03 12:35:36;;;;;;;8.60;3.72;;;23.10;99.90;;;;;;20552502;28;20035;-78
2021/09/03 12:45:42;;;;;;;11.60;2.78;;;23.20;99.90;;;;;;20477797;28;20055;-77
2021/09/03 12:55:43;;;;;;;7.30;3.10;;;23.20;99.90;;;;;;20473917;28;20074;-77
2021/09/03 13:05:45;;;;;;;8.15;3.00;;;23.00;99.90;;;;;;20548032;28;20047;-77
2021/09/03 13:15:46;;;;;;;8.98;2.50;;;22.60;99.90;;;;;;20480490;28;20109;-77
2021/09/03 13:25:47;;;;;;;5.32;2.40;;;22.40;99.90;;;;;;20464867;28;20031;-78
2021/09/03 13:35:48;;;;;;;9.55;2.65;;;22.70;99.90;;;;;;20536943;28;20043;-78
2021/09/03 13:45:49;;;;;;;5.07;1.73;;;22.80;99.90;;;;;;20529039;28;20039;-78
2021/09/03 13:55:51;;;;;;;7.10;2.10;;;22.40;99.90;;;;;;20505485;28;20042;-78
2021/09/03 14:05:53;;;;;;;4.40;1.90;;;22.80;99.90;;;;;;20540323;28;20399;-78
2021/09/03 14:15:54;;;;;;;7.97;1.70;;;22.60;99.90;;;;;;20500191;28;20059;-78
2021/09/03 14:25:55;;;;;;;6.47;2.60;;;22.10;99.90;;;;;;20534288;28;20028;-77
2021/09/03 14:35:56;;;;;;;4.45;2.35;;;22.10;99.90;;;;;;20499626;28;20046;-77
2021/09/03 14:45:57;;;;;;;5.40;1.50;;;21.90;99.90;;;;;;20519198;28;20035;-78
2021/09/03 14:55:58;;;;;;;5.32;2.13;;;21.80;99.90;;;;;;20524172;28;20537;-78
2021/09/03 15:05:59;;;;;;;10.85;2.20;;;21.50;99.90;;;;;;20545973;28;20043;-78
2021/09/03 15:16:06;;;;;;;6.20;2.53;;;21.20;99.90;;;;;;20557522;28;20047;-78
2021/09/03 15:26:09;;;;;;;5.72;1.92;;;21.30;99.90;;;;;;20534900;28;20038;-78
2021/09/03 15:36:10;;;;;;;4.28;1.83;;;21.10;99.90;;;;;;20572862;28;20046;-78
2021/09/03 15:46:11;;;;;;;8.32;1.85;;;20.90;99.90;;;;;;20528689;28;20038;-78
2021/09/03 15:56:12;;;;;;;6.15;2.25;;;20.70;99.90;;;;;;20507453;28;20051;-78
2021/09/03 16:06:14;;;;;;;7.88;2.25;;;20.40;99.90;;;;;;20530969;28;20491;-78
2021/09/03 16:16:15;;;;;;;5.15;2.30;;;20.10;99.90;;;;;;20608279;28;20057;-78
2021/09/03 16:26:17;;;;;;;9.07;2.45;;;20.10;99.90;;;;;;20536837;28;20050;-78
2021/09/03 16:36:18;;;;;;;5.75;2.17;;;19.80;99.90;;;;;;20565533;28;20057;-78
2021/09/03 16:46:19;;;;;;;8.68;2.80;;;19.70;99.90;;;;;;20575952;28;20030;-78
2021/09/03 16:56:20;;;;;;;4.40;2.05;;;19.50;99.90;;;;;;20591663;28;20054;-79
2021/09/03 17:06:22;;;;;;;6.97;3.17;;;19.40;99.90;;;;;;20610208;28;20057;-79
2021/09/03 17:16:23;;;;;;;6.10;2.17;;;19.20;99.90;;;;;;20601226;28;20051;-78
2021/09/03 17:26:25;;;;;;;5.50;2.03;;;19.10;99.90;;;;;;20562583;28;20143;-79
2021/09/03 17:36:29;;;;;;;6.47;2.40;;;18.90;99.90;;;;;;20551077;28;20065;-79
2021/09/03 17:46:30;;;;;;;7.47;2.65;;;18.80;99.90;;;;;;20509085;28;20032;-79
2021/09/03 17:56:32;;;;;;;6.45;2.40;;;18.60;99.90;;;;;;20522303;28;20052;-79
2021/09/03 18:06:34;;;;;;;6.10;2.72;;;18.50;99.90;;;;;;20564510;28;20463;-79
2021/09/03 18:16:36;;;;;;;5.38;1.90;;;18.30;99.90;;;;;;20544973;28;20059;-79
2021/09/03 18:26:37;;;;;;;7.10;2.20;;;18.10;99.90;;;;;;20540527;28;20038;-79
2021/09/03 18:36:38;;;;;;;8.48;2.28;;;17.90;99.90;;;;;;20521412;28;20043;-79
2021/09/03 18:46:39;;;;;;;5.32;1.75;;;17.90;99.90;;;;;;20461929;28;20042;-79
2021/09/03 18:56:41;;;;;;;6.32;1.88;;;17.70;99.90;;;;;;20529922;28;20406;-79
2021/09/03 19:06:42;;;;;;;8.65;2.40;;;17.60;99.90;;;;;;20511064;28;20391;-79
2021/09/03 19:16:43;;;;;;;7.63;2.80;;;17.60;99.90;;;;;;20535385;28;20043;-79
2021/09/03 19:26:46;;;;;;;5.70;2.63;;;17.50;99.90;;;;;;20528703;28;20042;-79
2021/09/03 19:36:47;;;;;;;10.02;2.25;;;17.40;99.90;;;;;;20521625;28;20043;-79
2021/09/03 19:46:48;;;;;;;8.10;2.85;;;17.30;99.90;;;;;;20486893;28;20382;-79
2021/09/03 19:56:49;;;;;;;6.72;2.95;;;17.30;99.90;;;;;;20539192;28;20051;-79
2021/09/03 20:06:50;;;;;;;7.55;2.83;;;17.20;99.90;;;;;;20529473;28;20035;-79
2021/09/03 20:16:51;;;;;;;13.15;3.25;;;17.20;99.90;;;;;;20515134;28;20048;-79
2021/09/03 20:26:52;;;;;;;7.45;2.55;;;17.10;99.90;;;;;;20477940;28;20047;-79
2021/09/03 20:36:55;;;;;;;8.25;3.85;;;16.90;99.90;;;;;;20486913;28;20038;-79
2021/09/03 20:46:56;;;;;;;6.40;2.75;;;16.80;99.90;;;;;;20561478;28;20034;-79
2021/09/03 20:56:57;;;;;;;8.02;3.22;;;16.70;99.90;;;;;;20533198;28;20047;-79
2021/09/03 21:06:58;;;;;;;8.40;3.30;;;16.50;99.90;;;;;;20627453;28;20046;-78
2021/09/03 21:16:59;;;;;;;7.32;3.47;;;16.40;99.90;;;;;;20575435;28;20038;-79
2021/09/03 21:27:01;;;;;;;7.90;2.67;;;16.30;99.90;;;;;;20556747;28;20039;-79
2021/09/03 21:37:02;;;;;;;12.48;3.55;;;16.10;99.90;;;;;;20598734;28;20434;-79
2021/09/03 21:47:03;;;;;;;7.30;2.85;;;16.00;99.90;;;;;;20555412;28;20400;-79
2021/09/03 21:57:05;;;;;;;7.38;2.88;;;15.80;99.90;;;;;;20573358;28;20043;-79
2021/09/03 22:07:06;;;;;;;8.82;3.30;;;15.70;99.90;;;;;;20639881;28;20050;-79
2021/09/03 22:17:07;;;;;;;10.02;3.00;;;15.60;99.90;;;;;;20606544;28;20046;-78
2021/09/03 22:27:09;;;;;;;8.93;3.60;;;15.40;99.90;;;;;;20625849;28;20349;-79
2021/09/03 22:37:10;;;;;;;10.05;4.18;;;15.30;99.90;;;;;;20585585;28;20054;-79
2021/09/03 22:47:11;;;;;;;14.52;3.30;;;15.20;99.90;;;;;;20593390;28;20045;-79
2021/09/03 22:57:12;;;;;;;6.78;2.42;;;15.10;99.90;;;;;;20600580;28;20623;-79
2021/09/03 23:07:13;;;;;;;7.53;4.18;;;15.00;99.90;;;;;;20571774;28;20054;-79
2021/09/03 23:17:14;;;;;;;14.68;3.97;;;14.90;99.90;;;;;;20618778;28;20051;-79
2021/09/03 23:27:15;;;;;;;13.80;3.45;;;14.80;99.90;;;;;;20592837;28;20054;-79
2021/09/03 23:37:16;;;;;;;7.72;3.05;;;14.70;99.90;;;;;;20604792;28;20418;-79
2021/09/03 23:47:19;;;;;;;9.57;3.70;;;14.60;99.90;;;;;;20611673;28;20054;-79
2021/09/03 23:57:20;;;;;;;9.10;3.70;;;14.50;99.90;;;;;;20618397;28;20047;-79
